Time;durP1;ratioP1;P1;durP2;ratioP2;P2;SDS_P1;SDS_P2;PMS_P1;PMS_P2;Temp;Humidity;BMP_temperature;BMP_pressure;BME280_temperature;BME280_humidity;BME280_pressure;Samples;Min_cycle;Max_cycle;Signal;HPM_P1;HPM_P2
2022/08/13 00:02:16;;;;;;;7.45;2.95;;;21.00;95.60;;;;;;5039034;28;38538;-58
2022/08/13 00:04:51;;;;;;;6.85;3.15;;;21.00;95.40;;;;;;5038046;28;37537;-58
2022/08/13 00:07:18;;;;;;;5.25;2.65;;;20.90;95.40;;;;;;5035324;28;36504;-58
2022/08/13 00:09:45;;;;;;;7.40;2.60;;;20.90;95.70;;;;;;5037439;28;37677;-58
2022/08/13 00:15:09;;;;;;;4.43;2.53;;;20.90;96.00;;;;;;5036458;28;39161;-58
2022/08/13 00:17:37;;;;;;;6.07;2.70;;;20.90;96.00;;;;;;5039709;28;36539;-58
2022/08/13 00:20:07;;;;;;;8.35;2.88;;;20.90;96.00;;;;;;5029291;28;37617;-58
2022/08/13 00:22:35;;;;;;;4.38;2.40;;;20.80;96.00;;;;;;5024655;28;36583;-58
2022/08/13 00:25:07;;;;;;;6.40;3.28;;;20.80;96.10;;;;;;5024649;28;37603;-58
2022/08/13 00:27:34;;;;;;;7.38;3.15;;;20.80;96.30;;;;;;5025193;28;36583;-58
2022/08/13 00:30:07;;;;;;;4.72;2.95;;;20.70;96.20;;;;;;5024917;28;37640;-58
2022/08/13 00:32:34;;;;;;;;;;;20.70;96.30;;;;;;5025466;28;36593;-58
2022/08/13 00:35:03;;;;;;;6.28;2.70;;;20.60;96.90;;;;;;5025782;28;37282;-58
2022/08/13 00:37:30;;;;;;;6.38;2.83;;;20.60;96.50;;;;;;5024146;28;36133;-58
2022/08/13 00:39:58;;;;;;;5.50;2.58;;;20.60;96.50;;;;;;5024962;28;36279;-58
2022/08/13 00:42:27;;;;;;;8.48;3.47;;;20.60;96.40;;;;;;5024039;28;37927;-58
2022/08/13 00:44:54;;;;;;;10.35;3.60;;;20.60;96.30;;;;;;5024650;28;37543;-58
2022/08/13 00:50:13;;;;;;;7.35;3.00;;;20.60;96.20;;;;;;5029359;28;37382;-58
2022/08/13 00:52:41;;;;;;;5.90;2.50;;;20.60;96.20;;;;;;5028504;28;37780;-63
2022/08/13 00:55:16;;;;;;;5.57;2.70;;;20.60;96.20;;;;;;5029340;28;36506;-58
2022/08/13 00:57:45;;;;;;;4.90;2.75;;;20.70;96.10;;;;;;5028129;28;36902;-58
2022/08/13 01:00:15;;;;;;;6.18;3.17;;;20.70;96.10;;;;;;5025918;28;37549;-58
2022/08/13 01:02:46;;;;;;;7.82;3.03;;;20.70;96.10;;;;;;5026772;28;38538;-64
2022/08/13 01:05:14;;;;;;;7.55;2.75;;;20.70;96.00;;;;;;5029744;28;37954;-58
2022/08/13 01:07:43;;;;;;;6.85;3.17;;;20.70;96.00;;;;;;5027953;28;35192;-61
2022/08/13 01:10:11;;;;;;;7.72;2.75;;;20.80;95.90;;;;;;5028846;28;37520;-58
2022/08/13 01:12:40;;;;;;;6.28;2.90;;;20.80;95.90;;;;;;5027239;28;37587;-64
2022/08/13 01:15:13;;;;;;;8.77;3.30;;;20.80;95.90;;;;;;5029456;28;36135;-61
2022/08/13 01:17:41;;;;;;;8.55;2.60;;;20.80;95.90;;;;;;5028052;28;37519;-63
2022/08/13 01:20:16;;;;;;;6.53;3.10;;;20.70;95.90;;;;;;5024699;28;38053;-62
2022/08/13 01:22:46;;;;;;;8.48;3.65;;;20.70;96.10;;;;;;5023540;28;37918;-63
2022/08/13 01:25:13;;;;;;;7.10;3.45;;;20.60;96.30;;;;;;5023871;28;37909;-64
2022/08/13 01:27:41;;;;;;;5.85;3.30;;;20.60;96.40;;;;;;5023067;28;36695;-62
2022/08/13 01:30:11;;;;;;;5.72;2.85;;;20.50;96.60;;;;;;5023573;28;37075;-64
2022/08/13 01:32:38;;;;;;;6.50;3.05;;;20.50;96.70;;;;;;5022343;28;37707;-58
2022/08/13 01:35:07;;;;;;;5.80;2.85;;;20.50;96.50;;;;;;5022216;28;37696;-58
2022/08/13 01:37:35;;;;;;;7.63;3.42;;;20.40;96.50;;;;;;5023853;28;36621;-57
2022/08/13 01:40:06;;;;;;;6.05;3.33;;;20.40;96.40;;;;;;5023190;28;37051;-58
2022/08/13 01:42:38;;;;;;;11.00;3.88;;;20.30;96.60;;;;;;5024224;28;38277;-57
2022/08/13 01:45:07;;;;;;;8.30;3.67;;;20.30;96.70;;;;;;5023527;28;39113;-57
2022/08/13 01:50:32;;;;;;;7.93;3.85;;;20.10;97.10;;;;;;5021708;28;37537;-58
2022/08/13 01:53:02;;;;;;;9.25;3.92;;;20.00;97.40;;;;;;5020419;28;38431;-58
2022/08/13 01:55:38;;;;;;;8.30;3.90;;;20.00;97.70;;;;;;5025729;28;38710;-57
2022/08/13 01:58:07;;;;;;;8.05;4.18;;;20.00;98.00;;;;;;5019126;28;38117;-58
2022/08/13 02:00:36;;;;;;;5.75;3.50;;;19.90;98.00;;;;;;5025051;28;36425;-58
2022/08/13 02:03:04;;;;;;;8.68;3.97;;;19.90;98.10;;;;;;5022170;28;37589;-57
2022/08/13 02:05:32;;;;;;;7.50;4.10;;;19.80;98.10;;;;;;5021854;28;38022;-57
2022/08/13 02:08:00;;;;;;;7.40;3.50;;;19.90;98.20;;;;;;5023808;28;36331;-57
2022/08/13 02:10:28;;;;;;;9.10;3.58;;;19.90;98.20;;;;;;5026318;28;37148;-57
2022/08/13 02:12:57;;;;;;;6.78;3.75;;;19.90;98.20;;;;;;5024949;28;37643;-57
2022/08/13 02:15:24;;;;;;;8.20;4.07;;;19.90;98.20;;;;;;5021152;28;38285;-57
2022/08/13 02:17:52;;;;;;;9.35;3.88;;;19.90;98.20;;;;;;5023973;28;37587;-57
2022/08/13 02:20:19;;;;;;;7.97;3.85;;;19.90;98.10;;;;;;5017872;28;38284;-57
2022/08/13 02:22:48;;;;;;;8.82;4.32;;;20.00;98.20;;;;;;5019437;28;38161;-58
2022/08/13 02:25:17;;;;;;;12.98;4.22;;;19.90;98.10;;;;;;5018902;28;37040;-58
2022/08/13 02:27:46;;;;;;;9.15;4.15;;;19.90;98.10;;;;;;5018023;28;38110;-57
2022/08/13 02:30:16;;;;;;;9.95;4.63;;;19.90;98.10;;;;;;5018004;28;36443;-57
2022/08/13 02:32:44;;;;;;;8.07;3.85;;;19.90;98.20;;;;;;5020855;28;38410;-57
2022/08/13 02:35:11;;;;;;;7.68;4.32;;;19.90;98.30;;;;;;5019731;28;37570;-57
2022/08/13 02:37:39;;;;;;;10.00;4.50;;;19.90;98.60;;;;;;5017669;28;37481;-57
2022/08/13 02:42:52;;;;;;;8.52;4.35;;;19.80;98.20;;;;;;5020942;28;38284;-58
2022/08/13 02:45:22;;;;;;;8.50;3.83;;;19.80;98.30;;;;;;5019343;28;38703;-58
2022/08/13 02:47:50;;;;;;;12.10;4.13;;;19.70;98.20;;;;;;5018760;28;37939;-57
2022/08/13 02:50:18;;;;;;;7.20;4.18;;;19.70;98.30;;;;;;5019906;28;39685;-58
2022/08/13 02:52:46;;;;;;;6.97;4.00;;;19.60;98.40;;;;;;5021235;28;38225;-58
2022/08/13 02:55:13;;;;;;;9.65;4.10;;;19.70;98.50;;;;;;5019559;28;36090;-57
2022/08/13 02:57:40;;;;;;;9.68;4.40;;;19.70;98.40;;;;;;5020664;28;36524;-57
2022/08/13 03:00:09;;;;;;;7.90;4.18;;;19.70;98.30;;;;;;5020700;28;38264;-57
2022/08/13 03:02:44;;;;;;;9.88;4.57;;;19.70;98.30;;;;;;5018828;28;38214;-57
2022/08/13 03:05:14;;;;;;;8.75;3.70;;;19.80;98.30;;;;;;5018612;28;37391;-57
2022/08/13 03:07:43;;;;;;;6.40;3.60;;;19.80;98.20;;;;;;5018589;28;35334;-57
2022/08/13 03:10:12;;;;;;;10.75;4.07;;;19.80;98.20;;;;;;5019100;28;37338;-57
2022/08/13 03:12:42;;;;;;;8.10;4.00;;;19.80;98.30;;;;;;5019349;28;38842;-59
2022/08/13 03:15:11;;;;;;;7.22;3.85;;;19.70;98.30;;;;;;5019900;28;37433;-57
2022/08/13 03:17:41;;;;;;;7.28;4.20;;;19.70;98.20;;;;;;5017423;28;35111;-57
2022/08/13 03:20:15;;;;;;;7.47;4.13;;;19.70;98.30;;;;;;5022868;28;37547;-58
2022/08/13 03:22:50;;;;;;;7.68;3.88;;;19.60;98.20;;;;;;5022989;28;37476;-57
2022/08/13 03:25:18;;;;;;;9.95;3.78;;;19.60;98.20;;;;;;5024172;28;37312;-57
2022/08/13 03:27:46;;;;;;;6.80;3.88;;;19.50;98.20;;;;;;5022819;28;37498;-57
2022/08/13 03:30:14;;;;;;;9.30;4.47;;;19.50;98.10;;;;;;5023759;28;36360;-58
2022/08/13 03:32:44;;;;;;;6.35;3.78;;;19.60;98.00;;;;;;5022326;28;36563;-57
2022/08/13 03:35:13;;;;;;;6.88;4.13;;;19.60;98.00;;;;;;5024460;28;37204;-57
2022/08/13 03:37:43;;;;;;;8.00;4.43;;;19.50;98.00;;;;;;5023157;28;36598;-57
2022/08/13 03:40:12;;;;;;;6.65;4.03;;;19.50;98.10;;;;;;5023172;28;37515;-57
2022/08/13 03:42:39;;;;;;;8.07;3.92;;;19.50;98.20;;;;;;5022790;28;36646;-58
2022/08/13 03:45:08;;;;;;;7.30;4.15;;;19.60;98.20;;;;;;5022432;28;36368;-57
2022/08/13 03:47:36;;;;;;;7.82;3.97;;;19.60;98.30;;;;;;5023260;28;36401;-58
2022/08/13 03:50:07;;;;;;;10.27;4.20;;;19.60;98.40;;;;;;5024065;28;37605;-58
2022/08/13 03:52:36;;;;;;;8.60;3.47;;;19.60;98.40;;;;;;5024106;28;37180;-57
2022/08/13 03:55:06;;;;;;;8.93;4.63;;;19.60;98.30;;;;;;5022500;28;41113;-57
2022/08/13 03:57:33;;;;;;;7.40;4.10;;;19.60;98.40;;;;;;5022385;28;37334;-57
2022/08/13 04:00:01;;;;;;;13.88;3.90;;;19.60;98.50;;;;;;5022450;28;36396;-57
2022/08/13 04:02:29;;;;;;;8.23;3.97;;;19.60;98.50;;;;;;5022412;28;38746;-57
2022/08/13 04:04:56;;;;;;;8.45;4.45;;;19.60;98.60;;;;;;5022556;28;38122;-57
2022/08/13 04:07:27;;;;;;;10.25;4.60;;;19.60;98.60;;;;;;5022293;28;36935;-57
2022/08/13 04:09:55;;;;;;;8.18;4.22;;;19.50;98.60;;;;;;5023666;28;36446;-57
2022/08/13 04:12:22;;;;;;;8.20;4.20;;;19.40;98.80;;;;;;5023168;28;38252;-57
2022/08/13 04:14:50;;;;;;;11.18;3.97;;;19.40;98.90;;;;;;5023226;28;37851;-57
2022/08/13 04:17:17;;;;;;;6.25;3.42;;;19.40;98.90;;;;;;5024210;28;35316;-58
2022/08/13 04:19:45;;;;;;;7.75;4.22;;;19.40;98.90;;;;;;5029739;28;38454;-57
2022/08/13 04:22:13;;;;;;;9.20;4.40;;;19.40;98.90;;;;;;5043643;28;37730;-57
2022/08/13 04:24:42;;;;;;;10.50;4.63;;;19.40;98.90;;;;;;5044136;28;37994;-57
2022/08/13 04:27:09;;;;;;;13.77;4.40;;;19.40;99.00;;;;;;5043447;28;38367;-57
2022/08/13 04:29:37;;;;;;;9.45;3.55;;;19.30;99.00;;;;;;5043807;28;37629;-57
2022/08/13 04:32:04;;;;;;;7.70;3.70;;;19.30;99.00;;;;;;5045429;28;37694;-57
2022/08/13 04:34:32;;;;;;;6.07;3.75;;;19.30;99.10;;;;;;5045466;28;37755;-57
2022/08/13 04:37:01;;;;;;;7.28;4.22;;;19.30;99.10;;;;;;5045435;28;37109;-57
2022/08/13 04:39:28;;;;;;;6.97;4.47;;;19.30;99.10;;;;;;5044392;28;37488;-57
2022/08/13 04:41:57;;;;;;;7.03;3.40;;;19.30;99.20;;;;;;5043446;28;37837;-59
2022/08/13 04:44:24;;;;;;;12.18;3.92;;;19.30;99.30;;;;;;5043894;28;37686;-57
2022/08/13 04:46:53;;;;;;;8.27;4.15;;;19.30;99.30;;;;;;5041756;28;37156;-57
2022/08/13 04:49:20;;;;;;;7.35;4.20;;;19.40;99.20;;;;;;5042756;28;37591;-56
2022/08/13 04:51:48;;;;;;;8.38;4.18;;;19.40;99.10;;;;;;5041392;28;37885;-56
2022/08/13 04:54:17;;;;;;;7.70;4.03;;;19.50;99.10;;;;;;5040751;28;36514;-56
2022/08/13 04:56:44;;;;;;;6.97;4.00;;;19.50;99.00;;;;;;5041946;28;36414;-56
2022/08/13 04:59:13;;;;;;;7.88;3.83;;;19.60;98.90;;;;;;5043597;28;38469;-56
2022/08/13 05:01:41;;;;;;;10.43;3.58;;;19.60;98.70;;;;;;5043738;28;38712;-56
2022/08/13 05:04:09;;;;;;;7.32;3.80;;;19.70;98.70;;;;;;5043455;28;37752;-56
2022/08/13 05:06:36;;;;;;;6.85;4.10;;;19.80;98.30;;;;;;5042224;28;37333;-57
2022/08/13 05:09:04;;;;;;;8.88;3.70;;;19.80;98.00;;;;;;5041404;28;36930;-57
2022/08/13 05:11:31;;;;;;;7.22;3.92;;;19.90;97.80;;;;;;5037378;28;37187;-57
2022/08/13 05:13:58;;;;;;;9.55;3.97;;;20.00;97.60;;;;;;5039252;28;37516;-57
2022/08/13 05:16:27;;;;;;;10.10;3.30;;;20.10;97.40;;;;;;5042983;28;35358;-57
2022/08/13 05:18:54;;;;;;;9.98;3.35;;;20.10;96.90;;;;;;5038682;28;37306;-57
2022/08/13 05:21:23;;;;;;;7.10;3.40;;;20.20;96.60;;;;;;5016311;28;37621;-58
2022/08/13 05:23:53;;;;;;;6.90;3.20;;;20.30;96.40;;;;;;5020172;28;37434;-58
2022/08/13 05:26:22;;;;;;;8.07;3.55;;;20.30;96.20;;;;;;5022025;28;20054;-58
2022/08/13 05:28:50;;;;;;;9.70;3.75;;;20.40;96.00;;;;;;5017912;28;37684;-58
2022/08/13 05:31:18;;;;;;;5.75;3.15;;;20.50;95.80;;;;;;5017815;28;38738;-58
2022/08/13 05:33:47;;;;;;;5.93;3.15;;;20.60;95.70;;;;;;5017985;28;36225;-57
2022/08/13 05:36:14;;;;;;;5.25;3.10;;;20.70;95.70;;;;;;5019233;28;36361;-58
2022/08/13 05:38:42;;;;;;;5.85;3.10;;;20.80;95.80;;;;;;5021379;28;37023;-58
2022/08/13 05:41:11;;;;;;;10.15;3.13;;;20.80;95.80;;;;;;5021392;28;37966;-58
2022/08/13 05:43:38;;;;;;;6.60;2.97;;;21.00;95.80;;;;;;5016327;28;38243;-58
2022/08/13 05:46:08;;;;;;;8.38;3.40;;;21.00;95.60;;;;;;5020965;28;37592;-58
2022/08/13 05:48:38;;;;;;;7.50;3.35;;;21.10;95.60;;;;;;5021162;28;37635;-58
2022/08/13 05:51:09;;;;;;;7.70;3.05;;;21.30;95.50;;;;;;5021771;28;37521;-58
2022/08/13 05:53:37;;;;;;;6.13;3.47;;;21.40;95.50;;;;;;5018633;28;37241;-58
2022/08/13 05:56:05;;;;;;;7.40;3.42;;;21.50;95.50;;;;;;5021039;28;35338;-58
2022/08/13 05:58:34;;;;;;;7.75;3.13;;;21.60;95.50;;;;;;5019752;28;38060;-58
2022/08/13 06:03:46;;;;;;;7.55;3.40;;;21.80;95.70;;;;;;5019162;28;39091;-58
2022/08/13 06:06:16;;;;;;;5.88;3.10;;;21.90;95.60;;;;;;5019178;28;36144;-58
2022/08/13 06:08:44;;;;;;;5.35;2.90;;;21.90;95.80;;;;;;5016343;28;38521;-58
2022/08/13 06:11:15;;;;;;;9.45;3.47;;;22.00;95.50;;;;;;5016382;28;37753;-58
2022/08/13 06:13:45;;;;;;;8.13;3.50;;;22.00;95.50;;;;;;5020045;28;36348;-58
2022/08/13 06:16:16;;;;;;;7.47;3.20;;;22.10;95.10;;;;;;5019859;28;36724;-58
2022/08/13 06:18:44;;;;;;;8.70;3.08;;;22.10;95.20;;;;;;5017942;28;38877;-58
2022/08/13 06:21:15;;;;;;;11.40;3.25;;;22.20;95.20;;;;;;5032650;28;38631;-58
2022/08/13 06:23:45;;;;;;;6.78;3.20;;;22.20;95.10;;;;;;5032821;28;37255;-58
2022/08/13 06:26:14;;;;;;;5.28;3.03;;;22.30;94.90;;;;;;5033852;28;36598;-58
2022/08/13 06:28:42;;;;;;;7.07;2.95;;;22.40;94.70;;;;;;5035308;28;37769;-58
2022/08/13 06:31:13;;;;;;;8.48;3.10;;;22.40;94.60;;;;;;5031650;28;38393;-58
2022/08/13 06:33:41;;;;;;;6.90;3.17;;;22.50;94.20;;;;;;5036047;28;37296;-58
2022/08/13 06:36:10;;;;;;;6.28;3.03;;;22.60;94.10;;;;;;5033146;28;36445;-58
2022/08/13 06:38:43;;;;;;;7.75;3.13;;;22.60;94.30;;;;;;5035298;28;37681;-58
2022/08/13 06:41:12;;;;;;;6.45;2.75;;;22.60;94.20;;;;;;5035194;28;36541;-58
2022/08/13 06:43:42;;;;;;;7.78;2.67;;;22.60;93.90;;;;;;5037274;28;36321;-58
2022/08/13 06:46:11;;;;;;;6.57;3.30;;;22.60;93.70;;;;;;5035724;28;36625;-58
2022/08/13 06:48:40;;;;;;;6.88;2.47;;;22.60;93.70;;;;;;5034845;28;38643;-58
2022/08/13 06:51:09;;;;;;;5.35;2.80;;;22.70;93.90;;;;;;5035538;28;38112;-58
2022/08/13 06:53:40;;;;;;;4.63;2.33;;;22.70;94.10;;;;;;5037036;28;36334;-58
2022/08/13 06:56:11;;;;;;;8.68;3.10;;;22.80;93.90;;;;;;5035058;28;36696;-58
2022/08/13 06:58:39;;;;;;;4.97;2.15;;;22.80;93.40;;;;;;5036526;28;37314;-58
2022/08/13 07:01:07;;;;;;;4.55;2.20;;;22.80;92.70;;;;;;5034027;28;37846;-58
2022/08/13 07:03:37;;;;;;;31.27;4.57;;;22.90;92.20;;;;;;5033691;28;38702;-58
2022/08/13 07:06:05;;;;;;;7.03;2.28;;;22.80;92.20;;;;;;5034429;28;37319;-58
2022/08/13 07:08:33;;;;;;;12.88;2.83;;;22.80;91.60;;;;;;5036800;28;37394;-58
2022/08/13 07:13:49;;;;;;;10.20;2.75;;;23.00;91.00;;;;;;5032503;28;37246;-58
2022/08/13 07:16:18;;;;;;;6.32;2.17;;;23.00;90.60;;;;;;5036405;28;36614;-58
2022/08/13 07:18:46;;;;;;;5.95;2.40;;;23.00;90.50;;;;;;5034745;28;37801;-57
2022/08/13 07:21:16;;;;;;;7.72;2.33;;;23.00;90.00;;;;;;5020802;28;37371;-58
2022/08/13 07:23:44;;;;;;;7.43;2.00;;;23.00;89.00;;;;;;5018747;28;37274;-58
2022/08/13 07:26:14;;;;;;;6.72;2.08;;;23.10;89.80;;;;;;5020246;28;35389;-58
2022/08/13 07:28:42;;;;;;;5.13;1.85;;;23.10;90.10;;;;;;5016150;28;38143;-58
2022/08/13 07:31:11;;;;;;;3.33;1.70;;;23.20;89.70;;;;;;5015801;28;38711;-58
2022/08/13 07:33:43;;;;;;;3.67;2.28;;;23.20;89.20;;;;;;5019755;28;37121;-58
2022/08/13 07:36:12;;;;;;;5.82;2.28;;;23.30;88.90;;;;;;5014865;28;36422;-58
2022/08/13 07:38:40;;;;;;;7.05;2.20;;;23.30;89.00;;;;;;5021058;28;38044;-57
2022/08/13 07:41:09;;;;;;;6.00;1.90;;;23.40;89.70;;;;;;5021115;28;37711;-58
2022/08/13 07:43:39;;;;;;;7.18;2.30;;;23.50;89.90;;;;;;5018035;28;36184;-58
2022/08/13 07:46:10;;;;;;;3.78;1.58;;;23.50;89.00;;;;;;5020922;28;37511;-58
2022/08/13 07:48:38;;;;;;;3.20;1.42;;;23.70;87.30;;;;;;5021918;28;36433;-58
2022/08/13 07:51:12;;;;;;;5.63;1.73;;;23.70;87.00;;;;;;5022097;28;38292;-58
2022/08/13 07:53:40;;;;;;;5.78;1.50;;;23.80;85.30;;;;;;5021801;28;37661;-58
2022/08/13 07:56:08;;;;;;;6.00;1.60;;;23.90;85.70;;;;;;5019889;28;40780;-58
2022/08/13 07:58:38;;;;;;;4.07;1.58;;;23.90;85.10;;;;;;5024771;28;39275;-58
2022/08/13 08:01:08;;;;;;;4.63;1.38;;;24.00;83.20;;;;;;5025215;28;37284;-57
2022/08/13 08:03:41;;;;;;;4.30;1.75;;;24.10;81.30;;;;;;5020859;28;37778;-58
2022/08/13 08:06:10;;;;;;;4.07;1.20;;;24.20;80.20;;;;;;5022657;28;35330;-58
2022/08/13 08:08:38;;;;;;;4.15;1.60;;;24.20;80.70;;;;;;5025850;28;36667;-58
2022/08/13 08:11:08;;;;;;;6.40;1.95;;;24.30;80.30;;;;;;5023456;28;36770;-58
2022/08/13 08:13:35;;;;;;;5.10;1.50;;;24.30;78.70;;;;;;5024177;28;39319;-58
2022/08/13 08:16:06;;;;;;;4.60;1.50;;;24.40;78.90;;;;;;5023306;28;35464;-58
2022/08/13 08:18:34;;;;;;;4.32;1.58;;;24.50;77.70;;;;;;5025700;28;37770;-58
2022/08/13 08:21:05;;;;;;;4.95;1.42;;;24.60;78.50;;;;;;5042065;28;38993;-58
2022/08/13 08:23:35;;;;;;;5.65;1.65;;;24.70;78.30;;;;;;5043945;28;39745;-58
2022/08/13 08:26:06;;;;;;;3.42;1.10;;;24.80;78.00;;;;;;5042360;28;36447;-58
2022/08/13 08:28:35;;;;;;;2.72;1.10;;;24.90;77.80;;;;;;5045641;28;36316;-58
2022/08/13 08:31:06;;;;;;;9.18;1.48;;;25.00;76.70;;;;;;5043591;28;36501;-58
2022/08/13 08:33:34;;;;;;;4.10;1.10;;;25.00;76.40;;;;;;5039666;28;37169;-58
2022/08/13 08:36:03;;;;;;;4.70;1.02;;;25.10;75.50;;;;;;5042937;28;38029;-58
2022/08/13 08:44:04;;;;;;;4.65;1.40;;;25.40;75.20;;;;;;5040929;28;39308;-58
2022/08/13 08:46:34;;;;;;;2.67;1.13;;;25.50;73.30;;;;;;5042546;28;36147;-58
2022/08/13 08:49:04;;;;;;;4.20;1.30;;;25.60;73.30;;;;;;5042873;28;37304;-58
2022/08/13 08:51:33;;;;;;;3.20;1.15;;;25.80;72.80;;;;;;5040254;28;38532;-58
2022/08/13 08:54:01;;;;;;;5.53;1.55;;;25.90;71.90;;;;;;5042002;28;37408;-58
2022/08/13 08:56:34;;;;;;;12.15;1.65;;;26.00;71.40;;;;;;5042411;28;36437;-59
2022/08/13 08:59:02;;;;;;;5.93;1.25;;;26.20;71.80;;;;;;5039534;28;37606;-58
2022/08/13 09:01:35;;;;;;;7.25;1.38;;;26.30;70.80;;;;;;5038276;28;38809;-58
2022/08/13 09:04:06;;;;;;;3.13;0.95;;;26.40;68.80;;;;;;5035327;28;37371;-58
2022/08/13 09:06:33;;;;;;;3.33;0.95;;;26.50;67.50;;;;;;5037310;28;35665;-58
2022/08/13 09:09:01;;;;;;;2.92;1.02;;;26.70;66.10;;;;;;5034935;28;37685;-58
2022/08/13 09:11:34;;;;;;;6.13;1.42;;;27.00;65.70;;;;;;5038471;28;39313;-58
2022/08/13 09:14:03;;;;;;;3.30;1.40;;;27.20;64.20;;;;;;5036978;28;36233;-58
2022/08/13 09:16:31;;;;;;;2.47;1.20;;;27.40;64.30;;;;;;5035205;28;36323;-58
2022/08/13 09:19:00;;;;;;;3.65;1.20;;;27.40;64.00;;;;;;5033500;28;39192;-57
2022/08/13 09:21:27;;;;;;;3.92;1.13;;;27.50;63.80;;;;;;5019091;28;38529;-58
2022/08/13 09:23:56;;;;;;;5.78;1.15;;;27.50;62.00;;;;;;5018731;28;36262;-57
2022/08/13 09:26:23;;;;;;;2.80;0.90;;;27.50;61.40;;;;;;5020155;28;37261;-58
2022/08/13 09:28:56;;;;;;;6.20;1.20;;;27.60;61.50;;;;;;5017929;28;37574;-58
2022/08/13 09:31:24;;;;;;;4.70;1.17;;;27.70;59.90;;;;;;5019366;28;37135;-58
2022/08/13 09:33:52;;;;;;;20.15;2.45;;;27.80;58.60;;;;;;5018970;28;37736;-57
2022/08/13 09:36:24;;;;;;;6.60;1.17;;;27.80;58.10;;;;;;5019339;28;37117;-56
2022/08/13 09:38:52;;;;;;;6.35;1.02;;;27.90;58.40;;;;;;5019332;28;38782;-56
2022/08/13 09:41:27;;;;;;;3.40;1.00;;;28.00;56.60;;;;;;5019628;28;37589;-57
2022/08/13 09:43:57;;;;;;;5.07;1.30;;;28.10;56.10;;;;;;5018588;28;36987;-57
2022/08/13 09:46:24;;;;;;;9.27;1.23;;;28.20;55.90;;;;;;5019568;28;35753;-57
2022/08/13 09:48:54;;;;;;;16.88;1.77;;;28.30;55.20;;;;;;5019516;28;37737;-56
2022/08/13 09:51:24;;;;;;;4.13;1.10;;;28.40;54.00;;;;;;5019820;28;38865;-57
2022/08/13 09:53:52;;;;;;;2.90;1.20;;;28.40;54.00;;;;;;5020354;28;37468;-57
2022/08/13 09:56:22;;;;;;;4.22;1.10;;;28.50;53.30;;;;;;5020491;28;36679;-57
2022/08/13 09:58:50;;;;;;;3.70;1.25;;;28.50;52.70;;;;;;5019809;28;36309;-57
2022/08/13 10:01:18;;;;;;;7.93;1.25;;;28.60;52.60;;;;;;5019907;28;38597;-57
2022/08/13 10:03:48;;;;;;;7.13;1.15;;;28.60;51.60;;;;;;5019829;28;38395;-57
2022/08/13 10:06:18;;;;;;;6.32;1.40;;;28.70;51.50;;;;;;5020023;28;35452;-57
2022/08/13 10:08:47;;;;;;;7.95;1.60;;;28.70;52.20;;;;;;5020353;28;38311;-57
2022/08/13 10:11:15;;;;;;;6.53;1.30;;;28.70;51.40;;;;;;5018651;28;36447;-57
2022/08/13 10:13:43;;;;;;;2.17;0.80;;;28.80;51.40;;;;;;5017772;28;38336;-57
2022/08/13 10:16:11;;;;;;;2.20;0.98;;;28.80;49.50;;;;;;5018585;28;36433;-57
2022/08/13 10:18:38;;;;;;;4.28;1.30;;;28.90;49.90;;;;;;5018657;28;38844;-57
2022/08/13 10:21:06;;;;;;;5.57;0.90;;;29.00;49.50;;;;;;5035551;28;38585;-57
2022/08/13 10:23:34;;;;;;;3.42;1.13;;;29.00;48.70;;;;;;5035704;28;38891;-57
2022/08/13 10:26:03;;;;;;;3.47;1.20;;;29.00;48.30;;;;;;5036200;28;36401;-57
2022/08/13 10:28:32;;;;;;;1.35;0.85;;;29.00;47.20;;;;;;5036472;28;38630;-57
2022/08/13 10:31:01;;;;;;;4.43;1.20;;;29.10;48.80;;;;;;5037937;28;38203;-57
2022/08/13 10:33:29;;;;;;;3.88;1.20;;;29.10;49.30;;;;;;5035933;28;38076;-57
2022/08/13 10:35:58;;;;;;;4.82;1.25;;;29.20;49.50;;;;;;5036677;28;37346;-57
2022/08/13 10:38:26;;;;;;;4.18;1.30;;;29.20;47.90;;;;;;5037528;28;36641;-57
2022/08/13 10:40:54;;;;;;;4.38;1.05;;;29.20;47.10;;;;;;5036992;28;39231;-57
2022/08/13 10:43:23;;;;;;;4.53;1.17;;;29.30;46.90;;;;;;5036499;28;36132;-57
2022/08/13 10:45:52;;;;;;;5.35;1.42;;;29.20;47.10;;;;;;5036246;28;36484;-57
2022/08/13 10:48:19;;;;;;;3.45;1.13;;;29.20;47.20;;;;;;5036717;28;36342;-57
2022/08/13 10:50:46;;;;;;;2.22;1.05;;;29.20;47.70;;;;;;5038382;28;38241;-57
2022/08/13 10:53:55;;;;;;;3.15;1.27;;;29.30;48.30;;;;;;5036661;28;37931;-57
2022/08/13 10:56:01;;;;;;;4.35;1.00;;;29.40;47.50;;;;;;5036484;28;37076;-57
2022/08/13 10:58:30;;;;;;;3.10;1.23;;;29.40;46.00;;;;;;5037227;28;39803;-57
2022/08/13 11:00:59;;;;;;;3.10;1.10;;;29.40;45.20;;;;;;5038136;28;38470;-56
2022/08/13 11:03:26;;;;;;;3.28;1.20;;;29.40;44.80;;;;;;5032613;28;37857;-57
2022/08/13 11:05:53;;;;;;;4.45;1.00;;;29.40;45.60;;;;;;5036855;28;36266;-57
2022/08/13 11:08:21;;;;;;;5.50;1.10;;;29.30;45.00;;;;;;5035875;28;37413;-57
2022/08/13 11:10:50;;;;;;;3.50;1.05;;;29.30;44.90;;;;;;5035626;28;39165;-57
2022/08/13 11:13:17;;;;;;;3.88;1.45;;;29.30;45.50;;;;;;5033434;28;38884;-57
2022/08/13 11:15:46;;;;;;;1.85;1.10;;;29.30;45.10;;;;;;5034620;28;36258;-57
2022/08/13 11:18:13;;;;;;;2.55;1.20;;;29.30;44.90;;;;;;5034149;28;37012;-56
2022/08/13 11:21:02;;;;;;;2.90;1.20;;;29.30;44.30;;;;;;5033970;28;37712;-57
2022/08/13 11:23:29;;;;;;;5.30;1.95;;;29.40;45.50;;;;;;5035727;28;41754;-56
2022/08/13 11:25:56;;;;;;;4.28;1.27;;;29.40;44.70;;;;;;5033858;28;35274;-57
2022/08/13 11:28:24;;;;;;;4.88;1.10;;;29.40;44.50;;;;;;5033686;28;38277;-57
2022/08/13 11:30:55;;;;;;;1.73;1.00;;;29.40;45.00;;;;;;5031497;28;37922;-57
2022/08/13 11:33:24;;;;;;;3.75;0.90;;;29.40;44.50;;;;;;5029994;28;36025;-56
2022/08/13 11:35:52;;;;;;;5.45;1.05;;;29.40;44.40;;;;;;5031582;28;38032;-57
2022/08/13 11:38:21;;;;;;;4.93;1.10;;;29.40;43.90;;;;;;5033464;28;37510;-57
2022/08/13 11:40:50;;;;;;;4.32;1.15;;;29.40;43.90;;;;;;5034200;28;37832;-57
2022/08/13 11:43:17;;;;;;;4.45;1.67;;;29.40;44.30;;;;;;5031979;28;38272;-57
2022/08/13 11:45:47;;;;;;;3.05;1.25;;;29.40;44.00;;;;;;5034550;28;35408;-57
2022/08/13 11:48:16;;;;;;;4.30;0.95;;;29.40;44.80;;;;;;5034029;28;37116;-57
2022/08/13 11:50:43;;;;;;;3.22;1.30;;;29.40;45.30;;;;;;5033974;28;37704;-57
2022/08/13 11:53:11;;;;;;;2.65;0.90;;;29.40;44.70;;;;;;5033340;28;38101;-57
2022/08/13 11:55:38;;;;;;;2.05;1.10;;;29.40;42.80;;;;;;5034123;28;35251;-57
2022/08/13 11:58:07;;;;;;;2.67;1.20;;;29.30;42.50;;;;;;5033446;28;37551;-57
2022/08/13 12:00:35;;;;;;;2.25;1.00;;;29.30;42.10;;;;;;5033604;28;37742;-57
2022/08/13 12:03:03;;;;;;;3.40;1.10;;;29.30;42.90;;;;;;5035490;28;37220;-57
2022/08/13 12:05:33;;;;;;;2.15;1.00;;;29.30;43.10;;;;;;5033631;28;36784;-57
2022/08/13 12:08:00;;;;;;;5.30;1.20;;;29.30;42.70;;;;;;5034836;28;38522;-57
2022/08/13 12:10:29;;;;;;;2.50;1.27;;;29.30;42.80;;;;;;5035216;28;38157;-57
2022/08/13 12:12:56;;;;;;;1.65;0.82;;;29.20;42.80;;;;;;5034676;28;38382;-57
2022/08/13 12:15:24;;;;;;;3.45;1.08;;;29.20;43.20;;;;;;5035230;28;38352;-57
2022/08/13 12:17:51;;;;;;;1.63;0.90;;;29.20;43.30;;;;;;5036076;28;37818;-56
2022/08/13 12:20:21;;;;;;;2.92;0.98;;;29.20;43.50;;;;;;5034161;28;39287;-57
2022/08/13 12:22:52;;;;;;;3.30;1.00;;;29.20;42.90;;;;;;5035092;28;36562;-57
2022/08/13 12:25:21;;;;;;;1.65;0.73;;;29.10;42.30;;;;;;5032766;28;36744;-57
2022/08/13 12:27:48;;;;;;;3.63;1.00;;;29.10;42.40;;;;;;5033520;28;38157;-57
2022/08/13 12:30:16;;;;;;;3.63;1.30;;;29.10;43.60;;;;;;5031957;28;38957;-57
2022/08/13 12:32:43;;;;;;;5.35;1.10;;;29.10;42.70;;;;;;5033139;28;38464;-57
2022/08/13 12:35:10;;;;;;;4.60;1.65;;;29.20;42.80;;;;;;5034657;28;38563;-57
2022/08/13 12:37:40;;;;;;;2.78;1.10;;;29.10;42.60;;;;;;5032739;28;37470;-57
2022/08/13 12:40:10;;;;;;;5.72;1.10;;;29.10;42.70;;;;;;5036977;28;38298;-57
2022/08/13 12:42:37;;;;;;;4.00;1.08;;;29.20;42.30;;;;;;5036227;28;39014;-57
2022/08/13 12:45:06;;;;;;;3.72;1.08;;;29.10;42.30;;;;;;5035060;28;36129;-57
2022/08/13 12:47:33;;;;;;;3.20;1.10;;;29.10;42.60;;;;;;5037258;28;39428;-57
2022/08/13 12:50:00;;;;;;;4.20;1.42;;;29.10;41.90;;;;;;5038814;28;38247;-57
2022/08/13 12:52:28;;;;;;;4.55;1.02;;;29.10;41.70;;;;;;5038957;28;36514;-57
2022/08/13 12:54:55;;;;;;;4.38;1.10;;;29.00;41.80;;;;;;5038596;28;36687;-57
2022/08/13 12:57:24;;;;;;;2.92;1.13;;;29.00;41.90;;;;;;5036930;28;38290;-57
2022/08/13 12:59:51;;;;;;;3.00;0.95;;;29.00;42.10;;;;;;5037392;28;38726;-57
2022/08/13 13:02:19;;;;;;;2.55;1.17;;;29.00;42.50;;;;;;5034153;28;36548;-57
2022/08/13 13:04:46;;;;;;;2.25;1.00;;;28.90;41.60;;;;;;5035242;28;38666;-57
2022/08/13 13:07:14;;;;;;;4.53;1.10;;;28.90;41.60;;;;;;5034471;28;38664;-57
2022/08/13 13:09:42;;;;;;;3.17;1.27;;;28.90;41.60;;;;;;5036738;28;37076;-57
2022/08/13 13:12:10;;;;;;;2.97;1.20;;;28.90;42.50;;;;;;5035195;28;37901;-57
2022/08/13 13:14:38;;;;;;;2.72;1.15;;;28.90;42.50;;;;;;5037390;28;36629;-61
2022/08/13 13:17:06;;;;;;;5.07;1.42;;;28.90;41.80;;;;;;5037483;28;37417;-61